Airfield :
LOGIN :

Register | Disclaimer

   EN    FR    IT 

 










Legend :    VFR   Marginal VFR   IFR   Intensive IFR   Very Intensive IFR
Visi :
Ceiling :
>= 8 km
>= 3000ft
5 to 8 km
1000 to 3000 ft
1500m to 5 km
500 to 1000 ft
800 to 1500m
200 to 500 ft
< 800m
< 200 ft
Symbols :   Thunderstorms  Fog  Heavy snow  Heavy precipitations  Wind > 20 kt
SIGMETs :     Misc.  Thunderstorms  Icing  Turbulence  Mountain Waves  Volcanic Ashes






- Airport Elevation : 74 ft
- IATA code : MRS


LFML - Marseille / Marignane

CURRENT METAR :
  • 162330Z AUTO 29015KT CAVOK 05/M00 Q1022 TEMPO RA

EXPIRED METARs :
  • 162300Z AUTO 28013KT CAVOK 05/M01 Q1022 TEMPO RA
  • 162230Z AUTO 32014KT CAVOK 05/M03 Q1022 TEMPO RA
  • 162200Z AUTO 34018KT 9999 FEW024 SCT066 OVC190 04/M05 Q1022 TEMPO RA
  • 162130Z AUTO 32017KT CAVOK 05/M06 Q1022 TEMPO RA
  • 162100Z AUTO 31014KT CAVOK 05/M07 Q1022 TEMPO RA

TAF TAF LFML
Valid from the 16 at 21:00 until the 18 at 03:00 UTC


162000Z 1621/1803 32012KT 9999 SCT050 TX11/1713Z TN04/1703Z
PROB30
TEMPO 1622/1701 RA
TEMPO 1702/1707 VRB02KT
BECMG 1711/1713 32017KT
TEMPO 1717/1802 32022G35KT
ATIS : +33 4 42 31 15 15



MET'MAP, your aeronautical weather chart ! - Copyright ORBIFLY December 2007 - Disclaimer

ORBIFLY MET'MAP TEAM :

Programming & Development : Alexandra Zaïnal
Concept & original design : Baudouin d'Aumeries
Assistance for programming : Marc-Olivier Méhu
Technical & hardware support : Manuel Goepfert

Contact : metmap@orbifly.com




SOURCES & CREDITS :

   NOAA